Time;durP1;ratioP1;P1;durP2;ratioP2;P2;SDS_P1;SDS_P2;PMS_P1;PMS_P2;Temp;Humidity;BMP_temperature;BMP_pressure;BME280_temperature;BME280_humidity;BME280_pressure;Samples;Min_cycle;Max_cycle;Signal;HPM_P1;HPM_P2
2022/01/21 02:06:10;;;;;;;21.23;8.07;;;;;;;-0.34;100.00;94488.03;5712149;23;20046;-81
2022/01/21 02:08:36;;;;;;;20.15;7.88;;;;;;;-0.48;100.00;94495.72;4980674;28;20394;-82
2022/01/21 02:11:02;;;;;;;23.27;8.73;;;;;;;-0.60;100.00;94494.72;5001930;28;20031;-82
2022/01/21 02:13:40;;;;;;;24.30;9.07;;;;;;;-0.45;100.00;94500.50;4977286;28;20037;-82
2022/01/21 02:16:28;;;;;;;;;;;;;;;;;;;;;
2022/01/21 02:21:43;;;;;;;28.38;9.50;;;;;;;-0.37;100.00;94485.88;4996518;28;20354;-82
2022/01/21 02:24:21;;;;;;;21.75;8.30;;;;;;;-0.38;100.00;94484.28;4992455;28;20435;-82
2022/01/21 02:26:48;;;;;;;26.05;8.57;;;;;;;-0.39;100.00;94488.63;4977050;28;20027;-82
2022/01/21 02:29:25;;;;;;;23.95;8.48;;;;;;;-0.45;100.00;94481.69;4961248;28;20049;-82
2022/01/21 02:31:51;;;;;;;21.13;7.60;;;;;;;-0.44;100.00;94483.28;4986911;28;20359;-82
2022/01/21 02:34:16;;;;;;;20.70;8.43;;;;;;;-0.83;100.00;94493.28;4978258;28;20031;-82
2022/01/21 02:36:46;;;;;;;17.70;8.52;;;;;;;-1.02;100.00;94484.47;4976514;28;20066;-82
2022/01/21 02:39:11;;;;;;;21.30;8.85;;;;;;;-0.98;100.00;94480.53;4976817;28;20443;-82
2022/01/21 02:41:37;;;;;;;21.80;9.02;;;;;;;-0.97;100.00;94482.13;4976985;28;20038;-82
2022/01/21 02:44:03;;;;;;;24.52;9.13;;;;;;;-0.86;100.00;94488.50;4977464;28;20105;-82
2022/01/21 02:46:28;;;;;;;20.15;7.63;;;;;;;-1.01;100.00;94476.56;4960780;28;20031;-82
2022/01/21 02:48:54;;;;;;;21.35;8.88;;;;;;;-0.92;100.00;94477.22;4960808;28;20030;-82
2022/01/21 02:51:20;;;;;;;24.17;8.73;;;;;;;-0.92;100.00;94484.13;4960686;28;20030;-82
2022/01/21 02:56:12;;;;;;;27.67;10.43;;;;;;;-0.78;100.00;94495.28;4976851;28;20499;-82
2022/01/21 02:58:39;;;;;;;20.10;8.40;;;;;;;-0.78;100.00;94488.34;4976527;28;20035;-82
2022/01/21 03:01:06;;;;;;;20.77;8.23;;;;;;;-0.75;100.00;94485.38;4992751;28;20348;-82
2022/01/21 03:03:31;;;;;;;24.17;9.02;;;;;;;-0.52;100.00;94486.81;4992309;28;20034;-82
2022/01/21 03:05:57;;;;;;;22.50;8.45;;;;;;;-0.59;100.00;94484.22;4976629;28;20038;-82
2022/01/21 03:08:23;;;;;;;21.30;8.73;;;;;;;-0.70;100.00;94484.78;4976654;28;20396;-82
2022/01/21 03:10:48;;;;;;;22.70;8.55;;;;;;;-0.49;100.00;94486.44;4976322;28;20033;-82
2022/01/21 03:13:15;;;;;;;24.17;9.10;;;;;;;-0.35;100.00;94489.84;4976471;28;20031;-82
2022/01/21 03:15:40;;;;;;;24.35;9.50;;;;;;;-0.20;100.00;94488.88;4976032;28;20031;-82
2022/01/21 03:18:06;;;;;;;26.52;9.70;;;;;;;-0.33;100.00;94490.44;4962805;28;20031;-82
2022/01/21 03:20:31;;;;;;;22.08;9.93;;;;;;;-0.31;100.00;94492.78;4964187;28;20463;-82
2022/01/21 03:22:59;;;;;;;24.85;9.68;;;;;;;-0.46;100.00;94488.59;4981300;28;20436;-82
2022/01/21 03:25:24;;;;;;;24.73;9.82;;;;;;;-0.54;100.00;94491.38;4988809;28;20033;-82
2022/01/21 03:27:50;;;;;;;26.08;9.93;;;;;;;-0.23;100.00;94494.38;4980187;28;20106;-82
2022/01/21 03:30:15;;;;;;;23.92;10.13;;;;;;;-0.40;100.00;94497.34;4980151;28;20027;-82
2022/01/21 03:32:41;;;;;;;27.73;10.45;;;;;;;-0.79;100.00;94498.81;4996669;28;20031;-82
2022/01/21 03:35:07;;;;;;;28.20;10.15;;;;;;;-1.06;100.00;94489.22;4963743;28;20122;-82
2022/01/21 03:37:32;;;;;;;30.27;10.55;;;;;;;-1.22;100.00;94486.97;4963766;28;20085;-82
2022/01/21 03:39:58;;;;;;;31.55;10.90;;;;;;;-1.26;100.00;94488.34;4979868;28;20352;-82
2022/01/21 03:42:25;;;;;;;29.27;10.45;;;;;;;-1.25;100.00;94489.91;4979837;28;20321;-82
2022/01/21 03:44:50;;;;;;;30.13;10.38;;;;;;;-0.83;100.00;94498.41;4980538;28;20034;-82
2022/01/21 03:47:16;;;;;;;27.52;10.75;;;;;;;-0.90;100.00;94503.53;4980848;28;20027;-82
2022/01/21 03:49:52;;;;;;;32.03;10.57;;;;;;;-0.84;100.00;94501.16;4979739;28;20106;-81
2022/01/21 03:52:17;;;;;;;26.17;10.75;;;;;;;-0.82;100.00;94502.56;4964997;28;20034;-82
2022/01/21 03:54:43;;;;;;;28.27;11.18;;;;;;;-0.50;100.00;94502.88;4980339;28;20033;-81
2022/01/21 03:57:08;;;;;;;32.80;11.98;;;;;;;-0.64;100.00;94502.03;4979793;28;20027;-82
2022/01/21 03:59:34;;;;;;;31.25;12.10;;;;;;;-0.62;100.00;94494.91;4980687;28;20090;-82
2022/01/21 04:02:05;;;;;;;31.63;12.80;;;;;;;-0.62;100.00;94496.69;4979549;28;20050;-82
2022/01/21 04:04:31;;;;;;;31.25;11.55;;;;;;;-0.56;100.00;94503.66;4963517;28;20031;-82
2022/01/21 04:06:56;;;;;;;31.05;12.13;;;;;;;-0.96;100.00;94498.38;4995733;28;20497;-82
2022/01/21 04:09:22;;;;;;;27.35;11.23;;;;;;;-1.14;100.00;94495.31;4963530;28;20026;-82
2022/01/21 04:11:47;;;;;;;32.35;12.25;;;;;;;-1.33;100.00;94504.50;4979297;28;20092;-82
2022/01/21 04:14:13;;;;;;;31.83;12.52;;;;;;;-1.45;100.00;94506.00;4978865;28;20042;-82
2022/01/21 04:16:41;;;;;;;37.10;12.65;;;;;;;-1.57;100.00;94506.56;4963470;28;20113;-82
2022/01/21 04:19:06;;;;;;;34.08;12.98;;;;;;;-1.42;100.00;94505.66;4979198;28;20030;-82
2022/01/21 04:21:33;;;;;;;36.10;12.98;;;;;;;-1.39;100.00;94512.16;4995499;28;20026;-82
2022/01/21 04:23:59;;;;;;;31.70;13.23;;;;;;;-1.42;100.00;94509.00;4989849;28;20030;-82
2022/01/21 04:26:25;;;;;;;27.83;10.93;;;;;;;-1.31;100.00;94517.19;4993929;28;20080;-82
2022/01/21 04:28:50;;;;;;;33.60;12.55;;;;;;;-1.17;100.00;94507.75;4997936;28;20029;-82
2022/01/21 04:31:16;;;;;;;36.88;12.50;;;;;;;-1.05;100.00;94513.16;4995132;28;20031;-82
2022/01/21 04:33:45;;;;;;;32.00;12.50;;;;;;;-1.07;100.00;94515.13;4994828;28;20127;-82
2022/01/21 04:36:10;;;;;;;27.95;11.68;;;;;;;-1.17;100.00;94518.03;4982262;28;20454;-82
2022/01/21 04:38:37;;;;;;;27.80;11.77;;;;;;;-1.33;100.00;94524.28;4985316;28;20022;-82
2022/01/21 04:48:56;;;;;;;34.88;13.40;;;;;;;-0.86;100.00;94535.59;4979849;28;20154;-82
2022/01/21 04:51:27;;;;;;;36.50;13.20;;;;;;;-1.22;100.00;94525.53;4978557;28;20118;-82
2022/01/21 04:53:53;;;;;;;36.85;14.63;;;;;;;-1.18;100.00;94532.69;4978288;28;20318;-82
2022/01/21 04:56:20;;;;;;;43.65;14.55;;;;;;;-1.08;100.00;94540.03;4994741;28;20037;-82
2022/01/21 04:58:45;;;;;;;34.67;13.68;;;;;;;-1.00;100.00;94539.09;4978427;28;20058;-82
2022/01/21 05:01:12;;;;;;;40.33;13.85;;;;;;;-0.91;100.00;94543.09;4962543;28;20416;-82
2022/01/21 05:03:41;;;;;;;31.30;13.52;;;;;;;-1.00;100.00;94554.53;4978126;28;20062;-82
2022/01/21 05:06:07;;;;;;;33.00;12.82;;;;;;;-1.22;100.00;94554.63;4977938;28;20034;-82
2022/01/21 05:11:04;;;;;;;36.75;14.30;;;;;;;-1.09;100.00;94560.78;4992693;28;20344;-82
2022/01/21 05:13:37;;;;;;;34.88;12.40;;;;;;;-1.10;100.00;94564.34;4977174;28;20031;-82
2022/01/21 05:16:07;;;;;;;33.33;13.07;;;;;;;-1.30;100.00;94563.25;4977341;28;20034;-82
2022/01/21 05:18:33;;;;;;;36.90;14.82;;;;;;;-1.31;100.00;94577.06;4977916;28;20301;-82
2022/01/21 05:20:59;;;;;;;38.20;13.63;;;;;;;-1.52;100.00;94579.72;4976980;28;20031;-82
2022/01/21 05:23:24;;;;;;;34.15;13.52;;;;;;;-1.62;100.00;94572.31;4978157;28;20026;-82
2022/01/21 05:25:50;;;;;;;38.95;13.88;;;;;;;-1.75;100.00;94578.13;4960783;28;20070;-82
2022/01/21 05:28:15;;;;;;;43.65;14.80;;;;;;;-1.95;100.00;94580.50;4961134;28;20042;-82
2022/01/21 05:30:41;;;;;;;41.30;13.32;;;;;;;-2.03;100.00;94582.25;4978109;28;20031;-82
2022/01/21 05:33:07;;;;;;;36.15;14.25;;;;;;;-1.84;100.00;94580.03;4976821;28;20035;-82
2022/01/21 05:35:32;;;;;;;34.05;13.32;;;;;;;-2.03;100.00;94589.94;4976509;28;20113;-82
2022/01/21 05:37:58;;;;;;;36.50;14.32;;;;;;;-2.19;100.00;94596.09;4977888;28;20069;-82
2022/01/21 05:40:24;;;;;;;38.20;14.50;;;;;;;-2.22;100.00;94603.34;4975668;28;20030;-82
2022/01/21 05:42:50;;;;;;;41.67;14.68;;;;;;;-2.00;100.00;94606.78;4976845;28;20027;-83
2022/01/21 05:47:59;;;;;;;43.75;15.80;;;;;;;-2.31;100.00;94618.06;4976734;28;20085;-83
2022/01/21 05:50:25;;;;;;;46.38;15.43;;;;;;;-2.28;100.00;94621.09;4976667;28;20034;-83
2022/01/21 05:52:50;;;;;;;39.65;14.90;;;;;;;-2.28;100.00;94628.00;4976978;28;20042;-83
2022/01/21 05:55:17;;;;;;;37.70;14.27;;;;;;;-2.36;100.00;94630.66;4976354;28;20348;-83
2022/01/21 05:57:43;;;;;;;41.15;15.50;;;;;;;-2.43;100.00;94633.97;4976817;28;20382;-83
2022/01/21 06:00:13;;;;;;;40.40;14.40;;;;;;;-2.51;100.00;94635.81;4960627;28;20142;-84
2022/01/21 06:02:39;;;;;;;39.88;14.00;;;;;;;-2.56;100.00;94638.94;4960585;28;20038;-84
2022/01/21 06:05:05;;;;;;;39.75;15.48;;;;;;;-2.72;100.00;94635.56;4980713;28;20034;-84
2022/01/21 06:07:31;;;;;;;44.33;15.20;;;;;;;-2.82;100.00;94642.72;4955171;28;1253069;-82
2022/01/21 06:09:57;;;;;;;45.83;15.90;;;;;;;-2.89;100.00;94642.63;5012955;28;20038;-82
2022/01/21 06:12:22;;;;;;;40.95;15.25;;;;;;;-2.92;100.00;94632.75;5012953;28;20081;-83
2022/01/21 06:14:48;;;;;;;42.40;15.68;;;;;;;-2.88;100.00;94641.66;5007692;28;20037;-83
2022/01/21 06:17:14;;;;;;;46.40;15.10;;;;;;;-2.97;100.00;94645.28;4961161;28;20070;-83
2022/01/21 06:19:40;;;;;;;42.47;15.05;;;;;;;-3.04;100.00;94636.69;4989692;28;20339;-82
2022/01/21 06:22:06;;;;;;;39.35;15.00;;;;;;;-3.07;100.00;94649.88;4980434;28;20120;-82
2022/01/21 06:24:31;;;;;;;42.40;15.18;;;;;;;-3.04;100.00;94654.66;4992750;28;20344;-82
2022/01/21 06:27:01;;;;;;;40.67;16.33;;;;;;;-2.90;100.00;94663.31;4988095;28;20045;-83
2022/01/21 06:29:27;;;;;;;42.17;16.05;;;;;;;-2.87;100.00;94663.75;4996748;28;20125;-82
2022/01/21 06:31:53;;;;;;;40.30;15.63;;;;;;;-2.79;100.00;94664.66;5012767;28;20045;-82
2022/01/21 06:34:18;;;;;;;44.50;15.32;;;;;;;-2.71;100.00;94662.81;4979925;28;20038;-83
2022/01/21 06:36:44;;;;;;;43.22;15.80;;;;;;;-2.88;100.00;94666.50;4997382;28;20038;-83
2022/01/21 06:39:09;;;;;;;42.83;14.80;;;;;;;-2.88;100.00;94676.75;4996194;28;20034;-82
2022/01/21 06:41:35;;;;;;;41.33;14.70;;;;;;;-2.83;100.00;94674.47;5012496;28;20030;-82
2022/01/21 06:44:01;;;;;;;47.40;15.00;;;;;;;-2.83;100.00;94674.47;4979721;28;20034;-82
2022/01/21 06:46:27;;;;;;;45.88;15.55;;;;;;;-2.99;100.00;94686.47;4996181;28;20089;-82
2022/01/21 06:48:52;;;;;;;43.97;15.63;;;;;;;-3.05;100.00;94691.50;4996072;28;20088;-82
2022/01/21 06:51:18;;;;;;;42.65;15.23;;;;;;;-3.16;100.00;94693.50;4979850;28;20041;-82
2022/01/21 06:53:43;;;;;;;40.88;15.60;;;;;;;-3.07;100.00;94701.94;4979694;28;20363;-82
2022/01/21 06:56:09;;;;;;;43.08;15.15;;;;;;;-3.30;100.00;94707.91;4980327;28;20034;-82
2022/01/21 06:58:34;;;;;;;43.45;15.13;;;;;;;-3.19;100.00;94701.56;4979722;28;20061;-82
2022/01/21 07:01:00;;;;;;;39.53;15.05;;;;;;;-3.10;100.00;94712.53;4996037;28;20046;-82
2022/01/21 07:03:25;;;;;;;41.55;14.20;;;;;;;-2.95;100.00;94711.78;4979740;28;20384;-82
2022/01/21 07:05:51;;;;;;;43.20;15.18;;;;;;;-2.96;100.00;94721.22;4995597;28;20371;-82
2022/01/21 07:08:17;;;;;;;48.58;15.55;;;;;;;-2.96;100.00;94721.22;4996010;28;20030;-82
2022/01/21 07:10:42;;;;;;;48.90;16.70;;;;;;;-3.06;100.00;94715.56;5012165;28;20343;-82
2022/01/21 07:13:08;;;;;;;48.60;15.75;;;;;;;-3.07;100.00;94722.44;5012467;28;20117;-82
2022/01/21 07:15:34;;;;;;;43.47;15.57;;;;;;;-3.06;100.00;94730.94;4995668;28;20026;-82
2022/01/21 07:17:59;;;;;;;39.22;14.52;;;;;;;-2.95;100.00;94735.63;4979888;28;20068;-83
2022/01/21 07:20:25;;;;;;;46.35;16.23;;;;;;;-2.80;100.00;94727.16;4996974;28;20423;-83
2022/01/21 07:22:50;;;;;;;48.35;16.83;;;;;;;-2.77;100.00;94735.31;4980123;28;20037;-82
2022/01/21 07:25:17;;;;;;;44.10;15.48;;;;;;;-2.52;100.00;94741.97;4979384;28;20495;-82
2022/01/21 07:27:44;;;;;;;39.08;15.35;;;;;;;-2.57;100.00;94742.53;4996961;28;20030;-82
2022/01/21 07:30:12;;;;;;;52.47;18.92;;;;;;;-2.66;100.00;94736.66;5012598;28;20383;-83
2022/01/21 07:32:38;;;;;;;62.20;21.38;;;;;;;-2.64;100.00;94749.31;4995680;28;20442;-83
2022/01/21 07:35:05;;;;;;;69.68;22.08;;;;;;;-2.66;100.00;94743.56;4979640;28;20037;-83
2022/01/21 07:37:30;;;;;;;65.63;21.05;;;;;;;-2.44;100.00;94745.28;4995634;28;20026;-83
2022/01/21 07:39:56;;;;;;;84.45;26.35;;;;;;;-2.62;100.00;94743.03;4996774;28;20031;-83
2022/01/21 07:42:21;;;;;;;178.38;30.30;;;;;;;-2.61;100.00;94744.63;4995595;28;20026;-83
2022/01/21 07:44:47;;;;;;;428.17;44.22;;;;;;;-2.81;100.00;94748.66;5011546;28;20041;-83
2022/01/21 07:47:13;;;;;;;104.00;28.02;;;;;;;-2.57;100.00;94752.78;4979966;28;20026;-82
2022/01/21 07:49:38;;;;;;;151.23;31.73;;;;;;;-2.86;100.00;94749.19;4995805;28;20054;-82
2022/01/21 07:52:04;;;;;;;659.15;54.40;;;;;;;-2.88;100.00;94757.06;4979734;28;20120;-82
2022/01/21 07:54:30;;;;;;;101.38;26.92;;;;;;;-2.59;100.00;94752.13;4979136;28;20355;-82
2022/01/21 07:56:56;;;;;;;88.63;26.88;;;;;;;-2.39;100.00;94756.78;4995807;28;20342;-82
2022/01/21 07:59:21;;;;;;;94.63;28.17;;;;;;;-2.66;100.00;94757.16;4995481;28;20036;-82
2022/01/21 08:01:47;;;;;;;187.60;32.95;;;;;;;-2.63;100.00;94761.16;4996031;28;20034;-82
2022/01/21 08:04:12;;;;;;;200.23;34.72;;;;;;;-2.67;100.00;94765.84;4997412;28;20034;-82
2022/01/21 08:06:38;;;;;;;191.18;34.30;;;;;;;-2.49;100.00;94768.09;4998792;28;20038;-82
2022/01/21 08:09:04;;;;;;;94.05;29.00;;;;;;;-2.14;100.00;94768.38;4982839;28;20034;-82
2022/01/21 08:11:30;;;;;;;269.20;38.47;;;;;;;-2.16;100.00;94769.53;4998807;28;20038;-82
2022/01/21 08:13:55;;;;;;;140.95;34.65;;;;;;;-1.70;100.00;94776.22;4998950;28;20045;-82
2022/01/21 08:16:21;;;;;;;368.27;42.20;;;;;;;-1.64;100.00;94774.69;4998758;28;20332;-82
2022/01/21 08:18:47;;;;;;;266.67;37.20;;;;;;;-1.26;100.00;94771.13;4998590;28;20037;-82
2022/01/21 08:21:18;;;;;;;227.85;34.67;;;;;;;-1.02;100.00;94775.13;4982941;28;20447;-82
2022/01/21 08:23:49;;;;;;;213.07;33.70;;;;;;;-1.53;100.00;94781.13;4998225;28;20084;-82
2022/01/21 08:26:17;;;;;;;572.70;46.30;;;;;;;-1.79;100.00;94787.56;4998594;28;20030;-82
2022/01/21 08:28:42;;;;;;;142.88;30.90;;;;;;;-1.34;100.00;94805.47;4982492;28;20038;-82
2022/01/21 08:31:08;;;;;;;106.03;31.98;;;;;;;-1.22;100.00;94804.03;4999564;28;20075;-82
2022/01/21 08:33:33;;;;;;;339.42;35.90;;;;;;;-1.81;100.00;94815.19;4999202;28;20034;-82
2022/01/21 08:35:59;;;;;;;114.88;33.50;;;;;;;-1.71;100.00;94811.38;4998371;28;20412;-82
2022/01/21 08:38:27;;;;;;;129.73;36.15;;;;;;;-1.23;100.00;94827.34;4998226;28;20026;-85
2022/01/21 08:40:53;;;;;;;125.85;36.58;;;;;;;-0.85;100.00;94839.97;5014239;28;20035;-84
2022/01/21 08:43:18;;;;;;;114.45;31.55;;;;;;;-0.76;100.00;94849.16;4982289;28;20030;-84
2022/01/21 08:45:44;;;;;;;109.53;33.83;;;;;;;-0.69;100.00;94846.63;4997770;28;20034;-84
2022/01/21 08:48:10;;;;;;;110.32;34.78;;;;;;;-0.69;100.00;94863.88;4998245;28;20130;-84
2022/01/21 08:50:36;;;;;;;118.90;36.40;;;;;;;-0.58;100.00;94865.94;4999637;28;20057;-84
2022/01/21 08:53:36;;;;;;;119.97;35.47;;;;;;;-0.37;100.00;94862.53;4998210;28;20042;-84
2022/01/21 08:55:54;;;;;;;110.40;33.20;;;;;;;-0.18;100.00;94880.94;4997635;28;20038;-85
2022/01/21 08:58:19;;;;;;;114.88;36.05;;;;;;;0.03;100.00;94887.81;4998030;28;20076;-84
2022/01/21 09:00:45;;;;;;;111.13;34.70;;;;;;;0.21;100.00;94889.88;4997957;28;20120;-85
2022/01/21 09:03:10;;;;;;;118.63;36.20;;;;;;;-0.15;100.00;94901.16;4998147;28;20032;-84
2022/01/21 09:05:36;;;;;;;111.72;35.75;;;;;;;-0.64;100.00;94902.72;4981053;28;20030;-85
2022/01/21 09:08:01;;;;;;;144.23;39.40;;;;;;;-0.30;100.00;94906.38;4998964;28;20451;-85
2022/01/21 09:10:27;;;;;;;145.85;42.42;;;;;;;-0.34;100.00;94908.53;4981794;28;20034;-84
2022/01/21 09:12:52;;;;;;;135.55;38.92;;;;;;;0.02;100.00;94909.41;4998814;28;20037;-85
2022/01/21 09:15:24;;;;;;;134.48;40.03;;;;;;;-0.18;100.00;94917.75;4997199;28;20109;-85
2022/01/21 09:17:49;;;;;;;139.88;41.33;;;;;;;-0.12;100.00;94923.19;4997671;28;20022;-85
2022/01/21 09:20:14;;;;;;;148.50;44.78;;;;;;;-0.04;100.00;94917.88;4998735;28;20391;-85
2022/01/21 09:22:40;;;;;;;141.60;43.78;;;;;;;0.20;100.00;94924.38;4997415;28;20073;-85
2022/01/21 09:25:09;;;;;;;175.05;46.90;;;;;;;0.26;100.00;94938.31;4981135;28;20023;-85
2022/01/21 09:27:35;;;;;;;141.63;42.65;;;;;;;0.48;100.00;94953.72;4997426;28;20026;-86
2022/01/21 09:30:05;;;;;;;138.55;41.40;;;;;;;0.69;100.00;94953.63;4981361;28;20022;-86
2022/01/21 09:32:32;;;;;;;155.80;45.25;;;;;;;0.76;100.00;94950.31;4997277;28;20039;-85
2022/01/21 09:34:58;;;;;;;158.88;45.15;;;;;;;0.73;100.00;94956.63;4981093;28;20037;-85
2022/01/21 09:37:24;;;;;;;242.32;79.57;;;;;;;0.61;100.00;94966.69;4981252;28;20069;-85
2022/01/21 09:39:54;;;;;;;156.65;44.80;;;;;;;0.40;100.00;94973.50;4997472;28;20056;-86
2022/01/21 09:42:24;;;;;;;182.73;45.25;;;;;;;0.08;100.00;94962.75;4997556;28;20097;-85
2022/01/21 09:44:50;;;;;;;176.38;47.55;;;;;;;0.20;100.00;94970.78;4980815;28;20065;-86
2022/01/21 09:47:18;;;;;;;142.32;41.05;;;;;;;-0.26;100.00;94977.16;5013420;28;20026;-85
2022/01/21 09:49:45;;;;;;;146.50;42.08;;;;;;;-0.59;100.00;94983.56;4981153;28;20026;-85
2022/01/21 09:52:12;;;;;;;188.20;50.92;;;;;;;-0.49;100.00;94980.69;5013349;28;20069;-84
2022/01/21 09:54:45;;;;;;;170.52;47.15;;;;;;;-0.34;100.00;94980.63;4996671;28;20124;-85
2022/01/21 09:57:20;;;;;;;174.68;46.70;;;;;;;-0.37;100.00;94988.72;4981239;28;20023;-85
2022/01/21 09:59:46;;;;;;;189.77;47.15;;;;;;;-0.49;100.00;94993.53;4997002;28;20440;-85
2022/01/21 10:02:13;;;;;;;178.13;45.75;;;;;;;-0.52;100.00;95000.81;4996970;28;20034;-85
2022/01/21 10:04:42;;;;;;;182.38;47.78;;;;;;;-0.28;100.00;95010.00;4996623;28;20081;-86
2022/01/21 10:07:17;;;;;;;191.75;53.15;;;;;;;-0.16;100.00;95010.31;5012701;28;20529;-85
2022/01/21 10:09:47;;;;;;;216.20;65.22;;;;;;;-0.14;100.00;95018.66;4996814;28;20022;-85
2022/01/21 10:12:13;;;;;;;237.02;78.53;;;;;;;-0.25;100.00;95019.13;4980608;28;20069;-85
2022/01/21 10:14:40;;;;;;;192.50;50.95;;;;;;;-0.12;100.00;95014.13;4980252;28;20120;-86
2022/01/21 10:17:06;;;;;;;171.50;47.17;;;;;;;0.39;100.00;95020.09;4996697;28;20026;-86
2022/01/21 10:19:37;;;;;;;166.02;45.90;;;;;;;0.24;100.00;95017.59;4996712;28;20030;-85
2022/01/21 10:22:03;;;;;;;172.48;46.60;;;;;;;0.21;100.00;95018.75;4996757;28;20432;-86
2022/01/21 10:24:30;;;;;;;153.93;43.75;;;;;;;0.78;100.00;95029.06;4996572;28;20030;-85
2022/01/21 10:26:57;;;;;;;150.57;44.42;;;;;;;0.95;100.00;95024.41;4980261;28;20507;-86
2022/01/21 10:29:24;;;;;;;157.38;42.85;;;;;;;0.49;100.00;95028.28;4996603;28;20510;-86
2022/01/21 10:31:58;;;;;;;137.80;40.70;;;;;;;0.70;100.00;95027.44;4996473;28;20436;-86
2022/01/21 10:34:44;;;;;;;139.88;40.58;;;;;;;1.04;100.00;95024.28;4996406;28;20054;-86
2022/01/21 10:37:35;;;;;;;147.18;40.70;;;;;;;1.37;100.00;95021.84;4980619;28;20037;-85
2022/01/21 10:40:07;;;;;;;141.07;40.38;;;;;;;1.80;100.00;95007.84;4996498;28;20525;-86
2022/01/21 10:42:33;;;;;;;132.65;40.15;;;;;;;1.94;100.00;95011.28;4996233;28;20037;-87
2022/01/21 10:45:02;;;;;;;132.43;40.00;;;;;;;1.97;100.00;94992.78;4980368;28;20025;-87
2022/01/21 10:47:33;;;;;;;127.03;38.80;;;;;;;2.10;100.00;94984.22;4997556;28;20113;-86
2022/01/21 10:50:08;;;;;;;123.18;36.90;;;;;;;2.01;100.00;94989.78;4996619;28;20379;-86
2022/01/21 10:52:51;;;;;;;109.05;34.45;;;;;;;2.07;100.00;94969.13;4996394;28;20050;-86
2022/01/21 10:55:32;;;;;;;112.57;34.33;;;;;;;1.92;100.00;94976.28;4996231;28;20161;-86
2022/01/21 10:58:09;;;;;;;89.93;30.73;;;;;;;2.25;100.00;94989.22;4980245;28;20281;-87
2022/01/21 11:00:36;;;;;;;97.90;33.80;;;;;;;1.95;100.00;94992.19;4996590;28;20030;-86
2022/01/21 11:03:11;;;;;;;99.60;32.58;;;;;;;2.23;100.00;94992.97;4980064;28;20065;-86
2022/01/21 11:05:41;;;;;;;123.43;39.67;;;;;;;1.43;100.00;94978.94;4995848;28;20083;-87
2022/01/21 11:08:09;;;;;;;125.82;39.42;;;;;;;1.87;100.00;94968.31;4997061;28;20029;-87
2022/01/21 11:10:35;;;;;;;136.68;42.50;;;;;;;1.95;100.00;94979.25;4990706;28;20027;-87
2022/01/21 11:13:10;;;;;;;122.93;37.72;;;;;;;2.06;100.00;94975.28;4976581;28;20344;-87
2022/01/21 11:15:42;;;;;;;126.70;41.58;;;;;;;2.14;100.00;94982.03;4976047;28;20038;-87
2022/01/21 11:18:10;;;;;;;118.03;37.63;;;;;;;2.72;100.00;94990.16;4976602;28;20383;-86
2022/01/21 11:20:39;;;;;;;102.35;34.45;;;;;;;3.09;100.00;94982.69;4976477;28;20128;-87
2022/01/21 11:23:05;;;;;;;112.35;36.55;;;;;;;3.19;100.00;94975.28;4976665;28;20022;-86
2022/01/21 11:25:47;;;;;;;105.03;36.10;;;;;;;3.61;100.00;94987.06;4977221;28;20038;-87
2022/01/21 11:28:23;;;;;;;94.05;33.40;;;;;;;3.50;100.00;94984.13;4976654;28;20026;-87
2022/01/21 11:30:50;;;;;;;113.65;35.97;;;;;;;3.28;100.00;94980.22;4976930;28;20125;-87
2022/01/21 11:33:16;;;;;;;96.78;35.28;;;;;;;4.00;100.00;94989.63;4959854;28;20034;-87
2022/01/21 11:35:42;;;;;;;93.85;34.72;;;;;;;4.08;100.00;94976.38;4975857;28;20034;-87
2022/01/21 11:38:09;;;;;;;99.82;35.22;;;;;;;4.13;100.00;94981.75;4996834;28;20031;-87
2022/01/21 11:40:35;;;;;;;115.70;37.05;;;;;;;4.12;100.00;94974.97;4988509;28;20113;-87
2022/01/21 11:43:03;;;;;;;103.95;36.22;;;;;;;4.11;100.00;94981.16;4989536;28;20019;-87
2022/01/21 11:50:53;;;;;;;98.93;34.72;;;;;;;3.63;100.00;94980.66;4964162;28;20150;-87
2022/01/21 11:53:44;;;;;;;104.95;35.88;;;;;;;3.64;100.00;94976.28;4988699;28;20031;-86
2022/01/21 11:56:28;;;;;;;99.10;36.05;;;;;;;3.73;100.00;94982.81;4988680;28;20018;-87
2022/01/21 11:59:19;;;;;;;99.78;33.92;;;;;;;3.93;100.00;94980.06;4993611;28;20332;-86
2022/01/21 12:01:48;;;;;;;96.95;35.00;;;;;;;4.33;100.00;94991.97;4985048;28;20022;-87
2022/01/21 12:04:29;;;;;;;101.65;34.50;;;;;;;4.42;100.00;94989.91;4973361;28;20023;-86
2022/01/21 12:06:58;;;;;;;102.88;35.30;;;;;;;4.50;100.00;94989.63;4983439;28;20038;-86
2022/01/21 12:09:53;;;;;;;98.70;34.72;;;;;;;3.58;100.00;94971.91;4997061;28;20436;-86
2022/01/21 12:12:18;;;;;;;91.75;31.55;;;;;;;3.69;100.00;94966.06;4993950;28;20039;-87
2022/01/21 12:14:50;;;;;;;99.03;35.53;;;;;;;3.71;100.00;94969.25;4998925;28;20390;-87
2022/01/21 12:17:40;;;;;;;89.75;32.83;;;;;;;3.86;100.00;94973.34;4983833;28;20030;-86
2022/01/21 12:20:08;;;;;;;80.10;29.02;;;;;;;3.85;100.00;94967.38;4998843;28;20045;-86
2022/01/21 12:22:34;;;;;;;83.35;30.65;;;;;;;4.05;100.00;94966.44;5014802;28;20037;-86
2022/01/21 12:25:06;;;;;;;76.60;26.85;;;;;;;4.21;100.00;94965.91;4997644;28;20026;-87
2022/01/21 12:27:32;;;;;;;85.88;30.95;;;;;;;4.05;100.00;94969.84;4999674;28;20121;-87
2022/01/21 12:30:20;;;;;;;96.22;35.22;;;;;;;3.52;100.00;94969.16;4998436;28;20037;-86
2022/01/21 12:32:55;;;;;;;71.32;26.80;;;;;;;3.89;100.00;94971.13;4999266;28;20088;-86
2022/01/21 12:35:21;;;;;;;85.15;30.33;;;;;;;3.92;100.00;94960.34;4999195;28;20026;-87
2022/01/21 12:40:55;;;;;;;92.75;31.67;;;;;;;3.48;100.00;94969.78;4970255;28;20141;-87
2022/01/21 12:43:37;;;;;;;88.88;31.55;;;;;;;3.98;100.00;94966.47;4998266;28;20101;-86
2022/01/21 12:46:04;;;;;;;78.07;29.00;;;;;;;3.53;100.00;94960.38;4981865;28;20340;-87
2022/01/21 12:48:34;;;;;;;78.75;28.65;;;;;;;3.48;100.00;94949.84;4997891;28;20424;-87
2022/01/21 12:51:13;;;;;;;84.60;29.63;;;;;;;2.88;100.00;94953.50;4997909;28;20022;-86
2022/01/21 12:55:54;;;;;;;75.30;27.27;;;;;;;3.07;100.00;94957.00;5012886;28;20030;-87
2022/01/21 12:56:24;;;;;;;77.35;27.33;;;;;;;3.52;100.00;94965.78;4997935;28;20073;-87
2022/01/21 12:58:50;;;;;;;70.50;26.17;;;;;;;3.74;100.00;94960.28;5014452;28;20524;-86
2022/01/21 13:01:15;;;;;;;72.45;26.83;;;;;;;3.86;100.00;94963.78;4995542;28;20049;-86
2022/01/21 13:03:47;;;;;;;78.53;27.73;;;;;;;3.79;100.00;94961.22;4970732;28;20026;-86
2022/01/21 13:06:21;;;;;;;79.45;26.85;;;;;;;3.86;100.00;94952.59;4997585;28;20030;-86
2022/01/21 13:08:52;;;;;;;80.00;34.45;;;;;;;3.63;100.00;94948.78;4997600;28;20339;-86
2022/01/21 13:11:24;;;;;;;83.82;35.67;;;;;;;4.22;100.00;94951.94;4997364;28;20049;-86
2022/01/21 13:17:00;;;;;;;72.00;29.65;;;;;;;4.56;100.00;94940.47;4998627;28;20038;-86
2022/01/21 13:19:26;;;;;;;67.63;27.38;;;;;;;3.73;100.00;94938.75;4997318;28;20415;-86
2022/01/21 13:21:52;;;;;;;63.90;25.52;;;;;;;3.78;100.00;94936.31;4980518;28;20029;-86
2022/01/21 13:24:31;;;;;;;60.58;23.00;;;;;;;3.82;100.00;94931.53;4997181;28;20030;-86
2022/01/21 13:26:58;;;;;;;61.58;23.67;;;;;;;4.16;100.00;94946.81;4997137;28;20594;-86
2022/01/21 13:29:34;;;;;;;63.40;25.15;;;;;;;4.59;100.00;94947.84;4981019;28;20034;-87
2022/01/21 13:32:01;;;;;;;62.25;25.90;;;;;;;4.49;100.00;94956.13;5003605;28;20031;-86
2022/01/21 13:34:26;;;;;;;58.03;23.20;;;;;;;4.54;100.00;94964.03;4996427;28;20027;-86
2022/01/21 13:36:53;;;;;;;66.15;23.95;;;;;;;4.13;100.00;94967.97;4998129;28;20032;-86
2022/01/21 13:39:31;;;;;;;65.00;24.60;;;;;;;4.01;100.00;94960.88;4996678;28;20037;-86
2022/01/21 13:42:07;;;;;;;56.50;22.13;;;;;;;4.52;100.00;94966.88;4996955;28;20022;-88
2022/01/21 13:44:46;;;;;;;64.32;24.20;;;;;;;4.42;100.00;94969.16;4996830;28;20436;-87
2022/01/21 13:47:31;;;;;;;59.83;24.20;;;;;;;4.15;100.00;94966.78;4996870;28;20380;-87
2022/01/21 13:49:58;;;;;;;118.18;43.00;;;;;;;4.20;100.00;94968.72;4996942;28;20440;-87
2022/01/21 13:53:00;;;;;;;84.28;31.85;;;;;;;3.89;100.00;94973.72;4981366;28;20172;-87